createdAt,value
2018-07-15T00:02:04.591Z,16.80
2018-07-15T00:04:36.522Z,16.70
2018-07-15T00:07:08.177Z,16.70
2018-07-15T00:09:38.953Z,16.70
2018-07-15T00:12:11.480Z,16.70
2018-07-15T00:14:42.851Z,16.70
2018-07-15T00:17:13.922Z,16.70
2018-07-15T00:19:45.298Z,16.60
2018-07-15T00:22:16.402Z,16.50
2018-07-15T00:24:47.743Z,16.50
2018-07-15T00:27:19.316Z,16.50
2018-07-15T00:29:51.067Z,16.50
2018-07-15T00:32:23.070Z,16.50
2018-07-15T00:34:53.927Z,16.60
2018-07-15T00:37:25.520Z,16.60
2018-07-15T00:39:56.021Z,16.60
2018-07-15T00:42:26.833Z,16.60
2018-07-15T00:44:57.925Z,16.60
2018-07-15T00:47:29.110Z,16.50
2018-07-15T00:49:59.987Z,16.50
2018-07-15T00:52:30.841Z,16.50
2018-07-15T00:55:01.619Z,16.50
2018-07-15T00:57:32.874Z,16.50
2018-07-15T01:00:03.924Z,16.50
2018-07-15T01:02:35.164Z,16.50
2018-07-15T01:05:06.383Z,16.40
2018-07-15T01:07:38.189Z,16.40
2018-07-15T01:10:09.381Z,16.40
2018-07-15T01:12:40.653Z,16.40
2018-07-15T01:15:11.964Z,16.40
2018-07-15T01:17:42.752Z,16.40
2018-07-15T01:20:15.177Z,16.50
2018-07-15T01:22:46.473Z,16.50
2018-07-15T01:25:17.690Z,16.50
2018-07-15T01:27:48.473Z,16.40
2018-07-15T01:30:19.722Z,16.40
2018-07-15T01:32:50.646Z,16.30
2018-07-15T01:35:21.497Z,16.30
2018-07-15T01:37:53.153Z,16.20
2018-07-15T01:40:23.937Z,16.20
2018-07-15T01:42:55.014Z,16.20
2018-07-15T01:45:27.121Z,16.20
2018-07-15T01:47:58.358Z,16.20
2018-07-15T01:50:29.541Z,16.30
2018-07-15T01:53:00.777Z,16.30
2018-07-15T01:55:31.682Z,16.30
2018-07-15T01:58:02.919Z,16.30
2018-07-15T02:00:34.127Z,16.30
2018-07-15T02:03:05.350Z,16.20
2018-07-15T02:05:36.195Z,16.20
2018-07-15T02:08:07.286Z,16.20
2018-07-15T02:10:38.071Z,16.10
2018-07-15T02:13:09.011Z,16.10
2018-07-15T02:15:39.832Z,16.20
2018-07-15T02:18:10.881Z,16.20
2018-07-15T02:20:41.667Z,16.10
2018-07-15T02:23:12.586Z,16.10
2018-07-15T02:25:44.082Z,16.10
2018-07-15T02:28:15.047Z,16.10
2018-07-15T02:30:45.812Z,16.00
2018-07-15T02:33:17.789Z,16.00
2018-07-15T02:35:49.000Z,16.00
2018-07-15T02:38:19.940Z,16.00
2018-07-15T02:40:51.940Z,16.00
2018-07-15T02:43:22.715Z,16.00
2018-07-15T02:45:54.070Z,15.90
2018-07-15T02:48:26.239Z,15.90
2018-07-15T02:50:57.061Z,15.80
2018-07-15T02:53:28.110Z,15.80
2018-07-15T02:55:58.993Z,15.70
2018-07-15T02:58:30.548Z,15.60
2018-07-15T03:01:01.322Z,15.60
2018-07-15T03:03:32.528Z,15.50
2018-07-15T03:06:03.753Z,15.50
2018-07-15T03:08:34.683Z,15.40
2018-07-15T03:11:05.894Z,15.40
2018-07-15T03:13:37.170Z,15.40
2018-07-15T03:16:07.876Z,15.50
2018-07-15T03:18:38.719Z,15.40
2018-07-15T03:21:09.973Z,15.50
2018-07-15T03:23:41.068Z,15.50
2018-07-15T03:26:11.959Z,15.60
2018-07-15T03:28:42.813Z,15.60
2018-07-15T03:31:13.552Z,15.80
2018-07-15T03:33:44.690Z,15.80
2018-07-15T03:36:15.618Z,15.80
2018-07-15T03:38:46.394Z,15.80
2018-07-15T03:41:17.522Z,15.90
2018-07-15T03:43:48.755Z,16.00
2018-07-15T03:46:19.623Z,16.10
2018-07-15T03:48:50.425Z,16.20
2018-07-15T03:51:21.112Z,16.20
2018-07-15T03:53:51.973Z,16.20
2018-07-15T03:56:23.114Z,16.30
2018-07-15T03:58:54.433Z,16.40
2018-07-15T04:01:25.631Z,16.50
2018-07-15T04:03:56.464Z,16.60
2018-07-15T04:06:28.465Z,16.80
2018-07-15T04:08:59.294Z,16.80
2018-07-15T04:11:30.916Z,16.90
2018-07-15T04:14:02.673Z,16.90
2018-07-15T04:16:34.225Z,17.00
2018-07-15T04:19:05.179Z,17.10
2018-07-15T04:21:36.658Z,17.10
2018-07-15T04:24:07.883Z,17.10
2018-07-15T04:26:38.862Z,17.10
2018-07-15T04:29:10.081Z,17.20
2018-07-15T04:31:41.241Z,17.20
2018-07-15T04:34:12.543Z,17.30
2018-07-15T04:36:43.994Z,17.40
2018-07-15T04:39:15.358Z,17.40
2018-07-15T04:41:46.934Z,17.50
2018-07-15T04:44:18.317Z,17.50
2018-07-15T04:46:50.326Z,17.50
2018-07-15T04:49:21.554Z,17.50
2018-07-15T04:51:53.318Z,17.50
2018-07-15T04:54:25.310Z,17.60
2018-07-15T04:56:57.092Z,17.80
2018-07-15T04:59:28.746Z,17.90
2018-07-15T05:02:00.372Z,18.20
2018-07-15T05:04:32.883Z,18.40
2018-07-15T05:07:04.984Z,18.70
2018-07-15T05:09:36.536Z,19.10
2018-07-15T05:12:08.781Z,19.40
2018-07-15T05:14:40.754Z,19.90
2018-07-15T05:17:12.800Z,20.30
2018-07-15T05:19:44.142Z,20.70
2018-07-15T05:22:15.742Z,21.10
2018-07-15T05:24:47.087Z,21.40
2018-07-15T05:27:18.792Z,21.70
2018-07-15T05:29:50.267Z,22.00
2018-07-15T05:32:22.570Z,22.10
2018-07-15T05:34:54.032Z,22.10
2018-07-15T05:37:25.872Z,22.20
2018-07-15T05:39:57.561Z,22.10
2018-07-15T05:42:29.081Z,22.10
2018-07-15T05:45:00.741Z,22.00
2018-07-15T05:47:32.518Z,21.80
2018-07-15T05:50:04.054Z,21.70
2018-07-15T05:52:35.396Z,21.50
2018-07-15T05:55:07.547Z,21.30
2018-07-15T05:57:39.110Z,21.10
2018-07-15T06:00:11.654Z,20.90
2018-07-15T06:02:43.427Z,20.90
2018-07-15T06:05:15.035Z,20.90
2018-07-15T06:07:46.315Z,21.00
2018-07-15T06:10:17.782Z,21.10
2018-07-15T06:12:49.995Z,21.20
2018-07-15T06:15:21.671Z,21.20
2018-07-15T06:17:53.255Z,21.30
2018-07-15T06:20:25.011Z,21.30
2018-07-15T06:22:57.013Z,21.30
2018-07-15T06:25:28.442Z,21.20
2018-07-15T06:27:59.992Z,21.20
2018-07-15T06:30:31.555Z,21.10
2018-07-15T06:33:03.247Z,21.10
2018-07-15T06:35:35.025Z,21.00
2018-07-15T06:38:07.148Z,21.00
2018-07-15T06:40:38.830Z,21.00
2018-07-15T06:43:10.303Z,20.90
2018-07-15T06:45:42.031Z,20.90
2018-07-15T06:48:13.862Z,20.90
2018-07-15T06:50:45.416Z,20.90
2018-07-15T06:53:17.635Z,21.00
2018-07-15T06:55:49.790Z,21.10
2018-07-15T06:58:21.360Z,21.20
2018-07-15T07:00:52.981Z,21.40
2018-07-15T07:03:25.052Z,21.70
2018-07-15T07:05:57.081Z,22.00
2018-07-15T07:08:28.840Z,22.20
2018-07-15T07:11:00.136Z,22.30
2018-07-15T07:13:32.099Z,22.60
2018-07-15T07:16:03.473Z,23.20
2018-07-15T07:18:35.098Z,23.90
2018-07-15T07:21:07.094Z,24.50
2018-07-15T07:23:38.450Z,24.80
2018-07-15T07:26:10.871Z,25.10
2018-07-15T07:28:42.699Z,25.20
2018-07-15T07:31:13.882Z,24.90
2018-07-15T07:33:45.414Z,24.70
2018-07-15T07:36:17.746Z,24.80
2018-07-15T07:38:49.074Z,24.50
2018-07-15T07:41:21.019Z,24.30
2018-07-15T07:43:52.893Z,24.10
2018-07-15T07:46:24.258Z,23.70
2018-07-15T07:48:55.826Z,23.40
2018-07-15T07:51:27.058Z,23.30
2018-07-15T07:53:58.794Z,23.20
2018-07-15T07:56:30.483Z,23.10
2018-07-15T07:59:02.612Z,23.10
2018-07-15T08:01:34.581Z,23.10
2018-07-15T08:04:05.935Z,23.00
2018-07-15T08:06:38.495Z,23.00
2018-07-15T08:09:10.526Z,22.90
2018-07-15T08:11:41.766Z,23.00
2018-07-15T08:14:13.373Z,23.10
2018-07-15T08:16:44.766Z,23.30
2018-07-15T08:19:16.627Z,23.40
2018-07-15T08:21:48.007Z,23.50
2018-07-15T08:24:19.729Z,23.60
2018-07-15T08:26:51.402Z,23.50
2018-07-15T08:29:22.874Z,23.60
2018-07-15T08:31:54.234Z,23.60
2018-07-15T08:34:26.318Z,23.80
2018-07-15T08:36:57.942Z,24.00
2018-07-15T08:39:29.552Z,24.10
2018-07-15T08:42:01.384Z,24.20
2018-07-15T08:44:32.858Z,24.40
2018-07-15T08:47:04.543Z,24.50
2018-07-15T08:49:36.360Z,24.70
2018-07-15T08:52:08.307Z,24.50
2018-07-15T08:54:39.204Z,24.70
2018-07-15T08:57:10.403Z,25.00
2018-07-15T08:59:42.163Z,25.20
2018-07-15T09:02:14.135Z,25.40
2018-07-15T09:04:45.761Z,25.40
2018-07-15T09:07:17.939Z,25.30
2018-07-15T09:09:49.177Z,25.30
2018-07-15T09:12:20.912Z,25.10
2018-07-15T09:14:52.517Z,25.10
2018-07-15T09:17:23.735Z,25.10
2018-07-15T09:19:55.023Z,25.10
2018-07-15T09:22:26.563Z,25.20
2018-07-15T09:24:59.629Z,25.10
2018-07-15T09:27:30.863Z,25.20
2018-07-15T09:30:02.265Z,25.00
2018-07-15T09:32:33.398Z,25.00
2018-07-15T09:35:05.139Z,25.20
2018-07-15T09:37:36.578Z,25.50
2018-07-15T09:40:09.149Z,25.60
2018-07-15T09:42:40.405Z,25.70
2018-07-15T09:45:12.099Z,25.80
2018-07-15T09:47:43.868Z,25.90
2018-07-15T09:50:15.383Z,25.70
2018-07-15T09:52:47.637Z,25.50
2018-07-15T09:55:19.219Z,25.20
2018-07-15T09:57:50.840Z,25.00
2018-07-15T10:00:27.387Z,24.90
2018-07-15T10:02:59.168Z,24.50
2018-07-15T10:05:31.311Z,24.30
2018-07-15T10:08:03.660Z,24.10
2018-07-15T10:10:35.526Z,23.70
2018-07-15T10:13:07.454Z,23.30
2018-07-15T10:15:39.211Z,23.10
2018-07-15T10:18:10.735Z,22.80
2018-07-15T10:20:42.980Z,22.60
2018-07-15T10:23:14.282Z,22.30
2018-07-15T10:25:45.712Z,22.10
2018-07-15T10:28:17.456Z,22.00
2018-07-15T10:30:49.602Z,21.90
2018-07-15T10:33:21.231Z,21.80
2018-07-15T10:35:52.648Z,21.70
2018-07-15T10:38:24.308Z,21.60
2018-07-15T10:40:56.238Z,21.50
2018-07-15T10:43:27.594Z,21.50
2018-07-15T10:45:59.192Z,21.30
2018-07-15T10:48:31.220Z,21.20
2018-07-15T10:51:02.650Z,21.10
2018-07-15T10:53:34.553Z,20.90
2018-07-15T10:56:06.746Z,20.70
2018-07-15T10:58:38.323Z,20.60
2018-07-15T11:01:11.292Z,20.40
2018-07-15T11:03:43.051Z,20.10
2018-07-15T11:06:15.111Z,19.90
2018-07-15T11:08:47.663Z,19.70
2018-07-15T11:11:19.392Z,19.40
2018-07-15T11:13:52.167Z,19.20
2018-07-15T11:16:24.569Z,19.10
2018-07-15T11:18:56.470Z,18.90
2018-07-15T11:21:28.616Z,18.80
2018-07-15T11:24:00.246Z,18.60
2018-07-15T11:26:32.385Z,18.50
2018-07-15T11:29:04.061Z,18.30
2018-07-15T11:31:36.118Z,18.20
2018-07-15T11:34:07.880Z,17.90
2018-07-15T11:36:39.617Z,17.70
2018-07-15T11:39:11.199Z,17.50
2018-07-15T11:41:43.292Z,17.30
2018-07-15T11:44:15.383Z,17.30
2018-07-15T11:46:47.911Z,17.20
2018-07-15T11:49:19.686Z,17.10
2018-07-15T11:51:51.288Z,17.00
2018-07-15T11:54:22.533Z,17.10
2018-07-15T11:56:54.601Z,17.10
2018-07-15T11:59:26.625Z,17.20
2018-07-15T12:01:59.743Z,17.40
2018-07-15T12:04:31.706Z,17.50
2018-07-15T12:07:04.271Z,17.50
2018-07-15T12:09:36.163Z,17.60
2018-07-15T12:12:08.110Z,17.60
2018-07-15T12:14:39.359Z,17.80
2018-07-15T12:17:11.220Z,18.00
2018-07-15T12:19:43.261Z,18.40
2018-07-15T12:22:15.377Z,18.70
2018-07-15T12:24:47.059Z,19.10
2018-07-15T12:27:19.220Z,19.60
2018-07-15T12:29:50.878Z,20.00
2018-07-15T12:32:22.262Z,20.50
2018-07-15T12:34:54.705Z,21.00
2018-07-15T12:37:27.331Z,21.70
2018-07-15T12:39:59.909Z,22.50
2018-07-15T12:42:31.832Z,23.30
2018-07-15T12:45:03.797Z,24.10
2018-07-15T12:47:36.359Z,24.70
2018-07-15T12:50:08.983Z,25.40
2018-07-15T12:52:40.782Z,25.90
2018-07-15T12:55:12.801Z,26.30
2018-07-15T12:57:44.203Z,26.50
2018-07-15T13:00:16.197Z,26.30
2018-07-15T13:02:47.879Z,26.00
2018-07-15T13:05:19.327Z,25.70
2018-07-15T13:07:51.271Z,25.50
2018-07-15T13:10:23.884Z,25.30
2018-07-15T13:12:55.485Z,25.00
2018-07-15T13:15:27.660Z,24.90
2018-07-15T13:17:59.766Z,24.80
2018-07-15T13:20:32.435Z,24.70
2018-07-15T13:23:05.683Z,24.70
2018-07-15T13:25:37.444Z,24.60
2018-07-15T13:28:09.465Z,24.70
2018-07-15T13:30:41.222Z,24.60
2018-07-15T13:33:12.869Z,24.70
2018-07-15T13:35:44.434Z,24.80
2018-07-15T13:38:16.985Z,25.00
2018-07-15T13:40:49.520Z,25.10
2018-07-15T13:43:21.369Z,25.30
2018-07-15T13:45:53.428Z,25.20
2018-07-15T13:48:25.446Z,25.30
2018-07-15T13:50:57.725Z,25.40
2018-07-15T13:53:30.476Z,25.60
2018-07-15T13:56:02.179Z,25.70
2018-07-15T13:58:33.979Z,25.60
2018-07-15T14:01:05.591Z,25.50
2018-07-15T14:03:37.707Z,25.20
2018-07-15T14:06:09.845Z,25.00
2018-07-15T14:08:41.455Z,25.00
2018-07-15T14:11:13.458Z,24.90
2018-07-15T14:13:44.783Z,25.00
2018-07-15T14:16:16.467Z,24.90
2018-07-15T14:18:48.004Z,24.80
2018-07-15T14:21:21.099Z,24.60
2018-07-15T14:23:53.070Z,24.20
2018-07-15T14:26:25.362Z,24.00
2018-07-15T14:28:56.968Z,23.80
2018-07-15T14:31:30.368Z,23.70
2018-07-15T14:34:02.026Z,23.70
2018-07-15T14:36:33.621Z,23.60
2018-07-15T14:39:05.826Z,23.60
2018-07-15T14:41:37.909Z,23.40
2018-07-15T14:44:09.599Z,23.20
2018-07-15T14:46:41.735Z,23.20
2018-07-15T14:49:12.981Z,23.00
2018-07-15T14:51:44.581Z,22.90
2018-07-15T14:54:16.711Z,22.80
2018-07-15T14:56:48.695Z,22.50
2018-07-15T14:59:20.448Z,22.40
2018-07-15T15:01:52.500Z,22.50
2018-07-15T15:04:24.580Z,22.60
2018-07-15T15:06:56.252Z,22.70
2018-07-15T15:09:28.139Z,22.90
2018-07-15T15:12:00.102Z,23.20
2018-07-15T15:14:32.652Z,23.60
2018-07-15T15:17:04.543Z,23.90
2018-07-15T15:19:36.494Z,24.10
2018-07-15T15:22:08.464Z,24.30
2018-07-15T15:24:40.373Z,24.40
2018-07-15T15:27:12.276Z,24.50
2018-07-15T15:29:44.196Z,24.80
2018-07-15T15:32:17.389Z,25.10
2018-07-15T15:34:49.367Z,25.10
2018-07-15T15:37:21.494Z,25.10
2018-07-15T15:39:53.742Z,25.20
2018-07-15T15:42:25.410Z,25.50
2018-07-15T15:44:57.111Z,25.70
2018-07-15T15:47:29.252Z,25.90
2018-07-15T15:50:00.982Z,25.60
2018-07-15T15:52:33.576Z,25.20
2018-07-15T15:55:05.795Z,24.90
2018-07-15T15:57:37.453Z,24.50
2018-07-15T16:00:10.538Z,23.90
2018-07-15T16:02:42.620Z,23.40
2018-07-15T16:05:15.212Z,23.10
2018-07-15T16:07:47.378Z,22.80
2018-07-15T16:10:19.102Z,22.40
2018-07-15T16:12:50.889Z,21.90
2018-07-15T16:15:22.581Z,21.50
2018-07-15T16:17:54.215Z,21.10
2018-07-15T16:20:26.058Z,20.80
2018-07-15T16:22:58.063Z,20.50
2018-07-15T16:25:29.357Z,20.20
2018-07-15T16:28:01.228Z,19.90
2018-07-15T16:30:33.217Z,19.50
2018-07-15T16:33:05.130Z,19.30
2018-07-15T16:35:37.077Z,19.10
2018-07-15T16:38:08.913Z,19.10
2018-07-15T16:40:40.955Z,19.20
2018-07-15T16:43:12.848Z,19.30
2018-07-15T16:45:44.798Z,19.30
2018-07-15T16:48:16.690Z,19.30
2018-07-15T16:50:48.647Z,19.30
2018-07-15T16:53:20.532Z,19.20
2018-07-15T16:55:52.514Z,19.10
2018-07-15T16:58:24.742Z,19.10
2018-07-15T17:00:57.723Z,19.00
2018-07-15T17:03:29.795Z,18.90
2018-07-15T17:06:02.161Z,18.90
2018-07-15T17:08:33.748Z,18.90
2018-07-15T17:11:06.306Z,18.90
2018-07-15T17:13:38.759Z,19.00
2018-07-15T17:16:10.517Z,19.00
2018-07-15T17:18:41.972Z,18.90
2018-07-15T17:21:13.926Z,18.90
2018-07-15T17:23:45.640Z,18.90
2018-07-15T17:26:17.461Z,18.90
2018-07-15T17:28:49.119Z,18.90
2018-07-15T17:31:20.747Z,18.90
2018-07-15T17:33:52.893Z,18.90
2018-07-15T17:36:24.579Z,18.80
2018-07-15T17:38:56.010Z,18.80
2018-07-15T17:41:28.073Z,18.70
2018-07-15T17:44:00.292Z,18.70
2018-07-15T17:46:31.846Z,18.60
2018-07-15T17:49:03.453Z,18.50
2018-07-15T17:51:35.563Z,18.40
2018-07-15T17:54:07.239Z,18.30
2018-07-15T17:56:39.825Z,18.30
2018-07-15T17:59:12.338Z,18.30
2018-07-15T18:01:44.924Z,18.40
2018-07-15T18:04:16.761Z,18.40
2018-07-15T18:06:49.473Z,18.40
2018-07-15T18:09:21.486Z,18.40
2018-07-15T18:11:54.111Z,18.50
2018-07-15T18:14:26.727Z,18.40
2018-07-15T18:16:58.630Z,18.30
2018-07-15T18:19:30.616Z,18.30
2018-07-15T18:22:04.069Z,18.20
2018-07-15T18:24:36.342Z,18.20
2018-07-15T18:27:08.308Z,18.20
2018-07-15T18:29:40.946Z,18.10
2018-07-15T18:32:13.644Z,18.10
2018-07-15T18:34:46.228Z,17.90
2018-07-15T18:37:18.464Z,17.80
2018-07-15T18:39:50.893Z,17.70
2018-07-15T18:42:24.294Z,17.60
2018-07-15T18:44:56.296Z,17.50
2018-07-15T18:47:28.993Z,17.40
2018-07-15T18:50:00.999Z,17.30
2018-07-15T18:52:36.253Z,17.30
2018-07-15T18:55:08.077Z,17.20
2018-07-15T18:57:40.065Z,17.10
2018-07-15T19:00:12.631Z,17.10
2018-07-15T19:02:44.512Z,17.00
2018-07-15T19:05:16.423Z,16.90
2018-07-15T19:07:48.346Z,16.80
2018-07-15T19:10:20.263Z,16.80
2018-07-15T19:12:52.101Z,16.70
2018-07-15T19:15:23.684Z,16.70
2018-07-15T19:17:55.888Z,16.60
2018-07-15T19:20:27.851Z,16.50
2018-07-15T19:23:00.946Z,16.40
2018-07-15T19:25:32.986Z,16.40
2018-07-15T19:28:04.831Z,16.30
2018-07-15T19:30:37.428Z,16.20
2018-07-15T19:33:09.371Z,16.20
2018-07-15T19:35:40.654Z,16.10
2018-07-15T19:38:13.243Z,16.00
2018-07-15T19:40:45.067Z,15.90
2018-07-15T19:43:17.047Z,15.80
2018-07-15T19:45:49.608Z,15.70
2018-07-15T19:48:20.891Z,15.60
2018-07-15T19:50:54.953Z,15.40
2018-07-15T19:53:26.956Z,15.30
2018-07-15T19:55:58.576Z,15.20
2018-07-15T19:58:29.867Z,15.10
2018-07-15T20:01:14.524Z,15.00
2018-07-15T20:03:47.404Z,14.90
2018-07-15T20:06:19.329Z,14.80
2018-07-15T20:08:50.557Z,14.70
2018-07-15T20:11:30.132Z,14.80
2018-07-15T20:14:01.804Z,14.80
2018-07-15T20:16:33.025Z,14.70
2018-07-15T20:19:04.691Z,14.70
2018-07-15T20:21:37.233Z,14.60
2018-07-15T20:24:08.487Z,14.60
2018-07-15T20:26:39.802Z,14.60
2018-07-15T20:29:11.081Z,14.60
2018-07-15T20:31:42.357Z,14.60
2018-07-15T20:34:13.611Z,14.60
2018-07-15T20:36:45.593Z,14.60
2018-07-15T20:39:17.491Z,14.60
2018-07-15T20:41:49.378Z,14.50
2018-07-15T20:44:21.350Z,14.50
2018-07-15T20:46:52.643Z,14.50
2018-07-15T20:49:23.886Z,14.50
2018-07-15T20:51:55.143Z,14.60
2018-07-15T20:54:27.063Z,14.60
2018-07-15T20:56:59.042Z,14.70
2018-07-15T20:59:30.330Z,14.70
2018-07-15T21:02:02.175Z,14.90
2018-07-15T21:04:34.132Z,15.10
2018-07-15T21:07:05.970Z,15.20
2018-07-15T21:09:37.263Z,15.40
2018-07-15T21:12:08.551Z,15.50
2018-07-15T21:14:40.560Z,15.50
2018-07-15T21:17:11.786Z,15.60
2018-07-15T21:19:42.667Z,15.60
2018-07-15T21:22:13.977Z,15.70
2018-07-15T21:24:45.658Z,15.80
2018-07-15T21:27:17.646Z,15.90
2018-07-15T21:29:49.453Z,16.00
2018-07-15T21:32:21.304Z,16.20
2018-07-15T21:34:52.582Z,16.20
2018-07-15T21:37:24.030Z,16.20
2018-07-15T21:39:55.978Z,16.20
2018-07-15T21:42:27.271Z,16.20
2018-07-15T21:45:00.040Z,16.10
2018-07-15T21:47:31.692Z,16.10
2018-07-15T21:50:04.235Z,16.00
2018-07-15T21:52:36.278Z,16.00
2018-07-15T21:55:07.992Z,15.90
2018-07-15T21:57:39.679Z,15.90
2018-07-15T22:00:11.274Z,15.90
2018-07-15T22:02:42.497Z,15.90
2018-07-15T22:05:13.724Z,15.80
2018-07-15T22:08:01.278Z,15.80
2018-07-15T22:10:38.790Z,15.90
2018-07-15T22:13:10.390Z,15.90
2018-07-15T22:15:42.328Z,15.90
2018-07-15T22:18:14.179Z,15.90
2018-07-15T22:20:46.111Z,15.90
2018-07-15T22:23:17.931Z,16.00
2018-07-15T22:25:49.878Z,16.00
2018-07-15T22:28:21.103Z,16.00
2018-07-15T22:30:52.334Z,16.00
2018-07-15T22:33:24.511Z,16.10
2018-07-15T22:35:55.704Z,16.10
2018-07-15T22:38:27.354Z,16.10
2018-07-15T22:40:58.576Z,16.20
2018-07-15T22:43:29.453Z,16.20
2018-07-15T22:46:01.921Z,16.20
2018-07-15T22:48:33.119Z,16.20
2018-07-15T22:51:04.803Z,16.10
2018-07-15T22:53:36.021Z,16.10
2018-07-15T22:56:07.256Z,16.10
2018-07-15T22:58:38.994Z,16.10
2018-07-15T23:01:11.005Z,16.00
2018-07-15T23:03:42.839Z,16.00
2018-07-15T23:06:20.649Z,16.00
2018-07-15T23:08:51.871Z,16.00
2018-07-15T23:11:23.826Z,16.00
2018-07-15T23:13:55.036Z,16.00
2018-07-15T23:16:26.265Z,15.90
2018-07-15T23:18:57.470Z,15.90
2018-07-15T23:21:28.717Z,15.80
2018-07-15T23:24:00.466Z,15.70
2018-07-15T23:26:31.721Z,15.60
2018-07-15T23:29:03.691Z,15.60
2018-07-15T23:31:37.114Z,15.50
2018-07-15T23:34:08.375Z,15.50
2018-07-15T23:36:39.663Z,15.40
2018-07-15T23:39:10.791Z,15.40
2018-07-15T23:41:42.466Z,15.40
2018-07-15T23:44:13.699Z,15.50
2018-07-15T23:46:44.916Z,15.60
2018-07-15T23:49:16.677Z,15.70
2018-07-15T23:51:47.971Z,15.70
2018-07-15T23:54:19.185Z,15.80
2018-07-15T23:56:50.444Z,15.80
2018-07-15T23:59:21.207Z,15.70
